Time;durP1;ratioP1;P1;durP2;ratioP2;P2;SDS_P1;SDS_P2;PMS_P1;PMS_P2;Temp;Humidity;BMP_temperature;BMP_pressure;BME280_temperature;BME280_humidity;BME280_pressure;Samples;Min_cycle;Max_cycle;Signal;HPM_P1;HPM_P2
2022/06/29 00:01:21;;;;;;;;;;;14.20;99.90;;;;;;5074199;28;19912;-75
2022/06/29 00:03:47;;;;;;;;;;;14.20;99.90;;;;;;5073993;28;19913;-75
2022/06/29 00:06:12;;;;;;;;;;;14.10;99.90;;;;;;5074439;28;20365;-75
2022/06/29 00:08:38;;;;;;;;;;;14.10;99.90;;;;;;5074334;28;19920;-75
2022/06/29 00:11:03;;;;;;;;;;;14.00;99.90;;;;;;5074129;28;19909;-74
2022/06/29 00:13:29;;;;;;;;;;;14.00;99.90;;;;;;5068329;28;19913;-74
2022/06/29 00:15:54;;;;;;;;;;;14.00;99.90;;;;;;5074079;28;19909;-75
2022/06/29 00:18:19;;;;;;;;;;;14.00;99.90;;;;;;5074297;28;19915;-75
2022/06/29 00:20:45;;;;;;;;;;;14.00;99.90;;;;;;5074364;28;19935;-75
2022/06/29 00:23:11;;;;;;;;;;;14.00;99.90;;;;;;5072921;28;19927;-75
2022/06/29 00:25:36;;;;;;;;;;;14.00;99.90;;;;;;5073870;28;19916;-75
2022/06/29 00:28:02;;;;;;;;;;;13.90;99.90;;;;;;5074042;28;19912;-75
2022/06/29 00:30:27;;;;;;;;;;;13.80;99.90;;;;;;5074640;28;19915;-74
2022/06/29 00:32:53;;;;;;;;;;;13.90;99.90;;;;;;5073561;28;20374;-75
2022/06/29 00:35:18;;;;;;;;;;;13.90;99.90;;;;;;5073262;28;20289;-75
2022/06/29 00:37:44;;;;;;;;;;;13.90;99.90;;;;;;5072613;28;19909;-75
2022/06/29 00:40:11;;;;;;;;;;;13.90;99.90;;;;;;5073708;28;19935;-75
2022/06/29 00:42:36;;;;;;;;;;;13.80;99.90;;;;;;5073205;28;19908;-75
2022/06/29 00:45:03;;;;;;;;;;;13.80;99.90;;;;;;5072850;28;19909;-75
2022/06/29 00:47:29;;;;;;;;;;;13.70;99.90;;;;;;5073796;28;19916;-75
2022/06/29 00:49:54;;;;;;;;;;;13.70;99.90;;;;;;5073711;28;20286;-75
2022/06/29 00:52:22;;;;;;;;;;;13.70;99.90;;;;;;5072856;28;19935;-75
2022/06/29 00:54:55;;;;;;;;;;;13.60;99.90;;;;;;5072810;28;20423;-75
2022/06/29 00:57:22;;;;;;;;;;;13.60;99.90;;;;;;5073405;28;20385;-75
2022/06/29 00:59:49;;;;;;;;;;;13.60;99.90;;;;;;5073592;28;19935;-75
2022/06/29 01:02:17;;;;;;;;;;;13.60;99.90;;;;;;5073055;28;19909;-75
2022/06/29 01:04:43;;;;;;;;;;;13.70;99.90;;;;;;5072675;28;19962;-74
2022/06/29 01:07:09;;;;;;;;;;;13.70;99.90;;;;;;5073216;28;20361;-75
2022/06/29 01:09:34;;;;;;;;;;;13.60;99.90;;;;;;5073170;28;19957;-75
2022/06/29 01:12:01;;;;;;;;;;;13.60;99.90;;;;;;5072585;28;19913;-75
2022/06/29 01:14:27;;;;;;;;;;;13.60;99.90;;;;;;5072135;28;19915;-75
2022/06/29 01:16:52;;;;;;;;;;;13.50;99.90;;;;;;5072979;28;19912;-75
2022/06/29 01:19:17;;;;;;;;;;;13.60;99.90;;;;;;5073145;28;19912;-75
2022/06/29 01:21:45;;;;;;;;;;;13.50;99.90;;;;;;5071330;28;19909;-75
2022/06/29 01:24:10;;;;;;;;;;;13.60;99.90;;;;;;5072157;28;20381;-75
2022/06/29 01:26:36;;;;;;;;;;;13.50;99.90;;;;;;5072266;28;19913;-75
2022/06/29 01:29:02;;;;;;;;;;;13.50;99.90;;;;;;5071632;28;20010;-75
2022/06/29 01:31:27;;;;;;;;;;;13.60;99.90;;;;;;5072531;28;19909;-75
2022/06/29 01:33:53;;;;;;;;;;;13.70;99.90;;;;;;5072300;28;19951;-74
2022/06/29 01:36:18;;;;;;;;;;;13.80;99.90;;;;;;5072768;28;19908;-75
2022/06/29 01:38:44;;;;;;;;;;;13.80;99.90;;;;;;5072876;28;20324;-75
2022/06/29 01:41:10;;;;;;;;;;;13.80;99.90;;;;;;5072325;28;19909;-75
2022/06/29 01:43:39;;;;;;;;;;;13.80;99.90;;;;;;5071595;28;19909;-75
2022/06/29 01:46:05;;;;;;;;;;;13.90;99.90;;;;;;5072377;28;19955;-75
2022/06/29 01:48:30;;;;;;;;;;;13.90;99.90;;;;;;5072499;28;19921;-75
2022/06/29 01:50:57;;;;;;;;;;;13.90;99.90;;;;;;5072509;28;19915;-75
2022/06/29 01:53:22;;;;;;;;;;;14.00;99.90;;;;;;5070083;28;19908;-75
2022/06/29 01:55:48;;;;;;;;;;;14.00;99.90;;;;;;5072179;28;19920;-75
2022/06/29 01:58:14;;;;;;;;;;;14.00;99.90;;;;;;5072596;28;19908;-75
2022/06/29 02:00:39;;;;;;;;;;;13.90;99.90;;;;;;5072402;28;19915;-75
2022/06/29 02:03:05;;;;;;;;;;;13.90;99.90;;;;;;5070342;28;19909;-75
2022/06/29 02:05:30;;;;;;;;;;;13.90;99.90;;;;;;5072069;28;20280;-75
2022/06/29 02:07:56;;;;;;;;;;;13.90;99.90;;;;;;5072118;28;19912;-75
2022/06/29 02:10:22;;;;;;;;;;;13.80;99.90;;;;;;5071907;28;19927;-75
2022/06/29 02:12:47;;;;;;;;;;;13.70;99.90;;;;;;5071402;28;19908;-75
2022/06/29 02:15:13;;;;;;;;;;;13.70;99.90;;;;;;5070934;28;20365;-75
2022/06/29 02:17:38;;;;;;;;;;;13.60;99.90;;;;;;5071977;28;19908;-75
2022/06/29 02:20:04;;;;;;;;;;;13.60;99.90;;;;;;5072002;28;19908;-75
2022/06/29 02:22:29;;;;;;;;;;;13.60;99.90;;;;;;5071374;28;19935;-74
2022/06/29 02:24:55;;;;;;;;;;;13.60;99.90;;;;;;5070700;28;19966;-75
2022/06/29 02:27:20;;;;;;;;;;;13.60;99.90;;;;;;5071702;28;20331;-75
2022/06/29 02:29:46;;;;;;;;;;;13.60;99.90;;;;;;5070541;28;20003;-75
2022/06/29 02:34:56;;;;;;;;;;;13.50;99.90;;;;;;5071105;28;19963;-74
2022/06/29 02:37:21;;;;;;;;;;;13.50;99.90;;;;;;5071261;28;20002;-74
2022/06/29 02:39:47;;;;;;;;;;;13.60;99.90;;;;;;5071426;28;20358;-74
2022/06/29 02:42:13;;;;;;;;;;;13.70;99.90;;;;;;5069752;28;20530;-75
2022/06/29 02:44:39;;;;;;;;;;;13.70;99.90;;;;;;5068758;28;19952;-75
2022/06/29 02:47:05;;;;;;;;;;;13.60;99.90;;;;;;5071288;28;20345;-75
2022/06/29 02:49:30;;;;;;;;;;;13.70;99.90;;;;;;5071298;28;20400;-75
2022/06/29 02:51:56;;;;;;;;;;;13.70;99.90;;;;;;5070871;28;19908;-75
2022/06/29 02:54:21;;;;;;;;;;;13.70;99.90;;;;;;5070779;28;19916;-75
2022/06/29 02:56:47;;;;;;;;;;;13.70;99.90;;;;;;5071234;28;20388;-74
2022/06/29 02:59:12;;;;;;;;;;;13.70;99.90;;;;;;5071271;28;19909;-75
2022/06/29 03:01:38;;;;;;;;;;;13.70;99.90;;;;;;5070701;28;19912;-75
2022/06/29 03:04:03;;;;;;;;;;;13.70;99.90;;;;;;5070669;28;20080;-75
2022/06/29 03:06:29;;;;;;;;;;;13.70;99.90;;;;;;5071171;28;20362;-75
2022/06/29 03:08:54;;;;;;;;;;;13.60;99.90;;;;;;5071225;28;19912;-75
2022/06/29 03:11:20;;;;;;;;;;;13.60;99.90;;;;;;5070506;28;19916;-75
2022/06/29 03:13:45;;;;;;;;;;;13.60;99.90;;;;;;5070357;28;19915;-74
2022/06/29 03:16:11;;;;;;;;;;;13.50;99.90;;;;;;5069678;28;19908;-75
2022/06/29 03:18:36;;;;;;;;;;;13.50;99.90;;;;;;5071095;28;20283;-75
2022/06/29 03:21:02;;;;;;;;;;;13.40;99.90;;;;;;5070969;28;19912;-75
2022/06/29 03:23:27;;;;;;;;;;;13.50;99.90;;;;;;5069909;28;19923;-75
2022/06/29 03:25:53;;;;;;;;;;;13.40;99.90;;;;;;5069768;28;19909;-74
2022/06/29 03:28:19;;;;;;;;;;;13.30;99.90;;;;;;5069803;28;19943;-75
2022/06/29 03:30:44;;;;;;;;;;;13.30;99.90;;;;;;5071121;28;19912;-75
2022/06/29 03:33:10;;;;;;;;;;;13.30;99.90;;;;;;5069933;28;20327;-75
2022/06/29 03:35:35;;;;;;;;;;;13.30;99.90;;;;;;5070748;28;20374;-75
2022/06/29 03:38:01;;;;;;;;;;;13.30;99.90;;;;;;5070941;28;19912;-74
2022/06/29 03:40:26;;;;;;;;;;;13.20;99.90;;;;;;5070666;28;20003;-75
2022/06/29 03:42:52;;;;;;;;;;;13.20;99.90;;;;;;5070279;28;19980;-75
2022/06/29 03:45:19;;;;;;;;;;;13.20;99.90;;;;;;5070075;28;19995;-75
2022/06/29 03:47:45;;;;;;;;;;;13.30;99.90;;;;;;5070707;28;19916;-74
2022/06/29 03:50:10;;;;;;;;;;;13.30;99.90;;;;;;5067648;28;19913;-75
2022/06/29 03:52:36;;;;;;;;;;;13.30;99.90;;;;;;5070181;28;20054;-75
2022/06/29 03:55:01;;;;;;;;;;;13.30;99.90;;;;;;5069402;28;19939;-75
2022/06/29 03:57:27;;;;;;;;;;;13.40;99.90;;;;;;5070662;28;19912;-75
2022/06/29 03:59:52;;;;;;;;;;;13.50;99.90;;;;;;5070652;28;19908;-75
2022/06/29 04:02:18;;;;;;;;;;;13.60;99.90;;;;;;5069950;28;19919;-75
2022/06/29 04:04:43;;;;;;;;;;;13.70;99.90;;;;;;5069873;28;19916;-75
2022/06/29 04:07:09;;;;;;;;;;;13.70;99.90;;;;;;5070511;28;20042;-74
2022/06/29 04:09:35;;;;;;;;;;;13.60;99.90;;;;;;5070549;28;19995;-74
2022/06/29 04:12:01;;;;;;;;;;;13.70;99.90;;;;;;5068588;28;19913;-75
2022/06/29 04:14:28;;;;;;;;;;;13.70;99.90;;;;;;5073371;28;19916;-75
2022/06/29 04:16:54;;;;;;;;;;;13.80;99.90;;;;;;5070681;28;19960;-75
2022/06/29 04:19:20;;;;;;;;;;;13.80;99.90;;;;;;5070534;28;19935;-75
2022/06/29 04:21:46;;;;;;;;;;;13.80;99.90;;;;;;5069996;28;19912;-75
2022/06/29 04:24:12;;;;;;;;;;;14.00;99.90;;;;;;5069676;28;19916;-75
2022/06/29 04:26:37;;;;;;;;;;;14.10;99.90;;;;;;5071753;28;20431;-75
2022/06/29 04:29:03;;;;;;;;;;;14.20;99.90;;;;;;5074271;28;20007;-75
2022/06/29 04:31:28;;;;;;;;;;;14.20;99.90;;;;;;5073369;28;20366;-75
2022/06/29 04:33:54;;;;;;;;;;;14.30;99.90;;;;;;5073800;28;19916;-75
2022/06/29 04:36:19;;;;;;;;;;;14.30;99.90;;;;;;5073830;28;19908;-75
2022/06/29 04:38:46;;;;;;;;;;;14.40;99.90;;;;;;5072500;28;19958;-75
2022/06/29 04:41:12;;;;;;;;;;;14.40;99.90;;;;;;5072269;28;19912;-75
2022/06/29 04:43:37;;;;;;;;;;;14.50;99.90;;;;;;5061448;28;19908;-75
2022/06/29 04:46:21;;;;;;;;;;;14.60;99.90;;;;;;5073197;28;19955;-75
2022/06/29 04:48:48;;;;;;;;;;;14.70;99.90;;;;;;5068911;28;20006;-75
2022/06/29 04:51:15;;;;;;;;;;;14.80;99.90;;;;;;5073365;28;20008;-75
2022/06/29 04:53:41;;;;;;;;;;;14.90;99.90;;;;;;5072945;28;20050;-75
2022/06/29 04:56:07;;;;;;;;;;;15.00;99.90;;;;;;5071917;28;19976;-75
2022/06/29 04:58:32;;;;;;;;;;;15.20;99.90;;;;;;5073955;28;19916;-76
2022/06/29 05:00:58;;;;;;;;;;;15.30;99.90;;;;;;5073035;28;19916;-75
2022/06/29 05:03:23;;;;;;;;;;;15.40;99.90;;;;;;5072146;28;19995;-75
2022/06/29 05:05:49;;;;;;;;;;;15.60;99.90;;;;;;5073199;28;19915;-76
2022/06/29 05:08:15;;;;;;;;;;;15.70;99.90;;;;;;5073244;28;19938;-76
2022/06/29 05:10:41;;;;;;;;;;;15.70;99.90;;;;;;5073009;28;19912;-75
2022/06/29 05:13:09;;;;;;;;;;;15.70;99.90;;;;;;5065627;28;19912;-76
2022/06/29 05:15:34;;;;;;;;;;;15.70;99.90;;;;;;5067935;28;19908;-75
2022/06/29 05:18:00;;;;;;;;;;;15.90;99.90;;;;;;5073107;28;19909;-75
2022/06/29 05:20:25;;;;;;;;;;;16.00;99.90;;;;;;5073058;28;19912;-75
2022/06/29 05:22:52;;;;;;;;;;;16.10;99.90;;;;;;5072594;28;20358;-75
2022/06/29 05:25:18;;;;;;;;;;;16.20;99.90;;;;;;5072426;28;20444;-75
2022/06/29 05:27:43;;;;;;;;;;;16.30;99.90;;;;;;5073182;28;19913;-76
2022/06/29 05:30:09;;;;;;;;;;;16.50;99.90;;;;;;5072804;28;19908;-75
2022/06/29 05:32:35;;;;;;;;;;;16.60;99.90;;;;;;5072606;28;19931;-75
2022/06/29 05:35:01;;;;;;;;;;;16.60;99.90;;;;;;5072306;28;19916;-75
2022/06/29 05:37:27;;;;;;;;;;;16.70;99.90;;;;;;5071734;28;20531;-76
2022/06/29 05:39:52;;;;;;;;;;;16.80;99.90;;;;;;5072893;28;19909;-75
2022/06/29 05:42:18;;;;;;;;;;;16.90;99.90;;;;;;5070043;28;20030;-76
2022/06/29 05:44:43;;;;;;;;;;;17.10;99.90;;;;;;5069346;28;20262;-76
2022/06/29 05:47:09;;;;;;;;;;;17.20;99.90;;;;;;5070103;28;20284;-75
2022/06/29 05:49:35;;;;;;;;;;;17.30;99.90;;;;;;5071157;28;19912;-76
2022/06/29 05:52:01;;;;;;;;;;;17.50;99.90;;;;;;5072198;28;19908;-76
2022/06/29 05:54:26;;;;;;;;;;;17.80;99.90;;;;;;5070741;28;19909;-76
2022/06/29 05:56:52;;;;;;;;;;;18.40;99.90;;;;;;5072028;28;19908;-76
2022/06/29 05:59:17;;;;;;;;;;;19.00;99.90;;;;;;5070984;28;20262;-76
2022/06/29 06:01:43;;;;;;;;;;;19.20;99.90;;;;;;5071710;28;19913;-75
2022/06/29 06:04:08;;;;;;;;;;;19.80;99.90;;;;;;5071704;28;20416;-76
2022/06/29 06:06:34;;;;;;;;;;;20.40;99.90;;;;;;5072213;28;19938;-76
2022/06/29 06:09:00;;;;;;;;;;;20.80;99.90;;;;;;5072140;28;20398;-76
2022/06/29 06:11:26;;;;;;;;;;;20.80;99.90;;;;;;5071312;28;19909;-76
2022/06/29 06:13:51;;;;;;;;;;;20.60;99.90;;;;;;5071003;28;19935;-76
2022/06/29 06:16:17;;;;;;;;;;;20.80;99.90;;;;;;5071780;28;20373;-76
2022/06/29 06:18:42;;;;;;;;;;;20.90;99.90;;;;;;5072056;28;19915;-76
2022/06/29 06:21:08;;;;;;;;;;;21.20;99.90;;;;;;5072483;28;20266;-77
2022/06/29 06:23:33;;;;;;;;;;;21.10;99.90;;;;;;5071172;28;19916;-76
2022/06/29 06:25:59;;;;;;;;;;;21.50;99.90;;;;;;5071790;28;19952;-76
2022/06/29 06:28:24;;;;;;;;;;;20.80;99.90;;;;;;5071778;28;19918;-78
2022/06/29 06:30:50;;;;;;;;;;;20.30;99.90;;;;;;5072132;28;19916;-75
2022/06/29 06:33:15;;;;;;;;;;;20.70;99.90;;;;;;5070833;28;19958;-75
2022/06/29 06:35:41;;;;;;;;;;;21.00;99.90;;;;;;5071802;28;19967;-76
2022/06/29 06:38:06;;;;;;;;;;;21.20;99.90;;;;;;5064986;28;19908;-78
2022/06/29 06:43:16;;;;;;;;;;;22.50;99.90;;;;;;5064753;28;20008;-76
2022/06/29 06:45:42;;;;;;;;;;;22.20;99.90;;;;;;5078976;28;19939;-76
2022/06/29 06:48:07;;;;;;;;;;;21.90;99.90;;;;;;5070299;28;20285;-76
2022/06/29 06:50:33;;;;;;;;;;;22.30;99.90;;;;;;5071669;28;19908;-78
2022/06/29 06:52:59;;;;;;;;;;;23.00;99.90;;;;;;5064830;28;19917;-76
2022/06/29 06:55:24;;;;;;;;;;;23.50;99.90;;;;;;5070960;28;20370;-75
2022/06/29 06:57:50;;;;;;;;;;;23.90;99.90;;;;;;5071637;28;19916;-75
2022/06/29 07:00:15;;;;;;;;;;;24.40;99.90;;;;;;5071865;28;19916;-75
2022/06/29 07:02:41;;;;;;;;;;;24.30;99.90;;;;;;5071187;28;20430;-77
2022/06/29 07:05:07;;;;;;;;;;;23.90;99.90;;;;;;5071126;28;19915;-75
2022/06/29 07:07:33;;;;;;;;;;;23.40;99.90;;;;;;5069466;28;20018;-75
2022/06/29 07:09:59;;;;;;;;;;;23.40;99.90;;;;;;5075139;28;20371;-75
2022/06/29 07:12:24;;;;;;;;;;;23.40;99.90;;;;;;5059775;28;20011;-75
2022/06/29 07:14:50;;;;;;;;;;;23.70;99.90;;;;;;5075849;28;20002;-75
2022/06/29 07:17:15;;;;;;;;;;;23.50;99.90;;;;;;5067186;28;19913;-78
2022/06/29 07:19:41;;;;;;;;;;;23.10;99.90;;;;;;5067748;28;20270;-76
2022/06/29 07:22:06;;;;;;;;;;;23.10;99.90;;;;;;5071585;28;19909;-75
2022/06/29 07:24:32;;;;;;;;;;;23.40;99.90;;;;;;5070683;28;19917;-75
2022/06/29 07:26:58;;;;;;;;;;;23.30;99.90;;;;;;5070539;28;20308;-75
2022/06/29 07:29:24;;;;;;;;;;;23.20;99.90;;;;;;5066400;28;20519;-76
2022/06/29 07:31:50;;;;;;;;;;;23.50;99.90;;;;;;5062584;28;19928;-75
2022/06/29 07:34:15;;;;;;;;;;;23.70;99.90;;;;;;5071396;28;19961;-75
2022/06/29 07:36:41;;;;;;;;;;;24.70;99.90;;;;;;5070471;28;19920;-75
2022/06/29 07:39:06;;;;;;;;;;;25.30;99.90;;;;;;5066664;28;19912;-78
2022/06/29 07:41:32;;;;;;;;;;;24.60;99.90;;;;;;5076067;28;19999;-76
2022/06/29 07:43:57;;;;;;;;;;;25.10;99.90;;;;;;5069494;28;19999;-74
2022/06/29 07:46:23;;;;;;;;;;;25.30;99.90;;;;;;5070576;28;19916;-75
2022/06/29 07:48:49;;;;;;;;;;;25.20;99.90;;;;;;5068987;28;19923;-75
2022/06/29 07:51:15;;;;;;;;;;;26.00;99.90;;;;;;5070244;28;19961;-75
2022/06/29 07:53:41;;;;;;;;;;;24.90;99.90;;;;;;5069761;28;19916;-75
2022/06/29 07:56:06;;;;;;;;;;;24.30;99.90;;;;;;5069748;28;19916;-75
2022/06/29 07:58:32;;;;;;;;;;;24.90;99.90;;;;;;5070328;28;20239;-75
2022/06/29 08:00:57;;;;;;;;;;;26.30;99.90;;;;;;5069397;28;19909;-75
2022/06/29 08:03:23;;;;;;;;;;;25.70;99.90;;;;;;5073488;28;19909;-77
2022/06/29 08:05:48;;;;;;;;;;;24.30;99.90;;;;;;5074265;28;19931;-75
2022/06/29 08:08:14;;;;;;;;;;;23.40;99.90;;;;;;5072955;28;19919;-75
2022/06/29 08:10:39;;;;;;;;;;;23.60;99.90;;;;;;5072244;28;19908;-76
2022/06/29 08:13:05;;;;;;;;;;;25.60;99.90;;;;;;5069579;28;19916;-77
2022/06/29 08:15:30;;;;;;;;;;;26.90;99.90;;;;;;5077957;28;19923;-75
2022/06/29 08:17:56;;;;;;;;;;;26.00;99.60;;;;;;5074248;28;20270;-75
2022/06/29 08:20:22;;;;;;;;;;;25.90;99.90;;;;;;5074212;28;19955;-77
2022/06/29 08:22:47;;;;;;;;;;;24.90;99.90;;;;;;5072904;28;20373;-79
2022/06/29 08:25:13;;;;;;;;;;;26.40;99.90;;;;;;5073400;28;20273;-79
2022/06/29 08:27:39;;;;;;;;;;;27.40;96.00;;;;;;5068961;28;19920;-79
2022/06/29 08:30:05;;;;;;;;;;;27.90;96.30;;;;;;5072436;28;19917;-79
2022/06/29 08:32:31;;;;;;;;;;;28.40;92.00;;;;;;5070931;28;20404;-78
2022/06/29 08:35:01;;;;;;;;;;;28.90;92.80;;;;;;5072666;28;19909;-78
2022/06/29 08:37:30;;;;;;;;;;;27.80;96.90;;;;;;5073559;28;20006;-78
2022/06/29 08:39:55;;;;;;;;;;;26.10;98.00;;;;;;5074356;28;19909;-78
2022/06/29 08:42:22;;;;;;;;;;;24.90;98.40;;;;;;5073184;28;19955;-78
2022/06/29 08:44:49;;;;;;;;;;;24.10;98.80;;;;;;5072158;28;19935;-77
2022/06/29 08:47:15;;;;;;;;;;;23.70;98.90;;;;;;5073373;28;19978;-78
2022/06/29 08:49:41;;;;;;;;;;;23.40;99.60;;;;;;5073389;28;20388;-77
2022/06/29 08:52:07;;;;;;;;;;;22.90;99.90;;;;;;5068852;28;19916;-76
2022/06/29 08:54:36;;;;;;;;;;;22.60;99.90;;;;;;5071565;28;19912;-77
2022/06/29 08:57:02;;;;;;;;;;;22.60;99.90;;;;;;5072643;28;19912;-76
2022/06/29 08:59:28;;;;;;;;;;;22.90;99.90;;;;;;5073144;28;20007;-78
2022/06/29 09:01:54;;;;;;;;;;;23.90;99.90;;;;;;5073792;28;20000;-79
2022/06/29 09:04:20;;;;;;;;;;;26.10;99.90;;;;;;5072170;28;19967;-77
2022/06/29 09:06:45;;;;;;;;;;;27.80;97.70;;;;;;5073253;28;19909;-77
2022/06/29 09:09:12;;;;;;;;;;;27.90;96.70;;;;;;5079214;28;19931;-78
2022/06/29 09:11:39;;;;;;;;;;;26.50;98.90;;;;;;5072637;28;20319;-76
2022/06/29 09:14:12;;;;;;;;;;;25.80;97.50;;;;;;5072774;28;20011;-76
2022/06/29 09:16:54;;;;;;;;;;;25.00;99.00;;;;;;5079943;28;19934;-78
2022/06/29 09:19:21;;;;;;;;;;;26.00;98.90;;;;;;5073614;28;19912;-78
2022/06/29 09:21:48;;;;;;;;;;;27.90;98.30;;;;;;5071548;28;20373;-78
2022/06/29 09:24:14;;;;;;;;;;;28.90;93.10;;;;;;5072296;28;19966;-78
2022/06/29 09:26:39;;;;;;;;;;;28.50;94.80;;;;;;5071595;28;20277;-77
2022/06/29 09:29:11;;;;;;;;;;;29.20;92.60;;;;;;5070838;28;19912;-79
2022/06/29 09:31:37;;;;;;;;;;;30.50;94.00;;;;;;5070155;28;20387;-80
2022/06/29 09:34:17;;;;;;;;;;;30.60;89.70;;;;;;5071157;28;20027;-77
2022/06/29 09:36:55;;;;;;;;;;;30.80;90.40;;;;;;5073135;28;19908;-80
2022/06/29 09:39:37;;;;;;;;;;;29.80;92.40;;;;;;5071346;28;19913;-80
2022/06/29 09:42:06;;;;;;;;;;;28.40;92.50;;;;;;5071749;28;19909;-76
2022/06/29 09:44:32;;;;;;;;;;;28.20;92.90;;;;;;5072119;28;20708;-76
2022/06/29 09:46:58;;;;;;;;;;;27.50;94.40;;;;;;5068618;28;19908;-77
2022/06/29 09:49:29;;;;;;;;;;;26.50;95.70;;;;;;5069348;28;19954;-78
2022/06/29 09:51:56;;;;;;;;;;;26.00;95.70;;;;;;5071618;28;20003;-77
2022/06/29 09:54:23;;;;;;;;;;;25.40;95.20;;;;;;5071589;28;19970;-78
2022/06/29 09:56:49;;;;;;;;;;;25.10;95.70;;;;;;5071931;28;20006;-77
2022/06/29 10:02:39;;;;;;;;;;;25.40;98.40;;;;;;5070068;28;19954;-77
2022/06/29 10:05:05;;;;;;;;;;;25.40;94.80;;;;;;5070360;28;20381;-76
2022/06/29 10:07:31;;;;;;;;;;;25.30;96.60;;;;;;5072314;28;19908;-76
2022/06/29 10:09:57;;;;;;;;;;;24.90;95.70;;;;;;5072428;28;19920;-76
2022/06/29 10:15:36;;;;;;;;;;;25.10;96.40;;;;;;5071301;28;19943;-76
2022/06/29 10:18:21;;;;;;;;;;;24.60;97.00;;;;;;5066619;28;20370;-78
2022/06/29 10:20:47;;;;;;;;;;;24.80;98.30;;;;;;5076970;28;19912;-76
2022/06/29 10:23:31;;;;;;;;;;;25.10;98.50;;;;;;5067515;28;19923;-76
2022/06/29 10:25:57;;;;;;;;;;;25.50;94.30;;;;;;5047449;28;19908;-77
2022/06/29 10:28:23;;;;;;;;;;;25.80;94.00;;;;;;5071664;28;20035;-76
2022/06/29 10:30:49;;;;;;;;;;;25.90;97.30;;;;;;5070009;28;19962;-77
2022/06/29 10:33:36;;;;;;;;;;;25.90;95.10;;;;;;5068110;28;19909;-77
2022/06/29 10:36:08;;;;;;;;;;;26.80;97.70;;;;;;5070978;28;20003;-77
2022/06/29 10:38:48;;;;;;;;;;;26.00;95.80;;;;;;5072112;28;20370;-77
2022/06/29 10:43:58;;;;;;;;;;;25.70;96.00;;;;;;5076707;28;19915;-77
2022/06/29 10:46:23;;;;;;;;;;;25.80;96.20;;;;;;5072178;28;19909;-77
2022/06/29 10:49:08;;;;;;;;;;;25.90;94.60;;;;;;5072947;28;19912;-77
2022/06/29 10:51:33;;;;;;;;;;;25.60;96.20;;;;;;5072101;28;20368;-77
2022/06/29 10:53:59;;;;;;;;;;;24.40;96.20;;;;;;5071342;28;19909;-76
2022/06/29 10:56:24;;;;;;;;;;;24.20;98.60;;;;;;5072069;28;20419;-76
2022/06/29 10:58:50;;;;;;;;;;;24.40;97.60;;;;;;5072184;28;19941;-76
2022/06/29 11:01:15;;;;;;;;;;;24.50;98.50;;;;;;5071148;28;19915;-76
2022/06/29 11:03:41;;;;;;;;;;;24.40;98.20;;;;;;5072016;28;19912;-76
2022/06/29 11:17:39;;;;;;;;;;;23.80;98.50;;;;;;5070918;28;19915;-76
2022/06/29 11:19:56;;;;;;;;;;;23.90;99.10;;;;;;5066232;28;20373;-76
2022/06/29 11:22:22;;;;;;;;;;;24.00;98.70;;;;;;5070824;28;19915;-76
2022/06/29 11:24:57;;;;;;;;;;;24.00;99.50;;;;;;5065573;28;20446;-76
2022/06/29 11:27:33;;;;;;;;;;;23.90;98.90;;;;;;5071625;28;20361;-76
2022/06/29 11:29:58;;;;;;;;;;;24.30;98.50;;;;;;5070548;28;20296;-76
2022/06/29 11:32:46;;;;;;;;;;;24.50;98.30;;;;;;5071718;28;19912;-77
2022/06/29 11:35:21;;;;;;;;;;;24.80;99.80;;;;;;5071342;28;19931;-76
2022/06/29 11:37:47;;;;;;;;;;;25.10;98.60;;;;;;5075855;28;19909;-76
2022/06/29 11:40:12;;;;;;;;;;;25.00;97.40;;;;;;5074636;28;19908;-76
2022/06/29 11:45:22;;;;;;;;;;;25.50;98.70;;;;;;5075350;28;20332;-76
2022/06/29 11:47:55;;;;;;;;;;;25.70;97.30;;;;;;5074055;28;19908;-76
2022/06/29 11:50:21;;;;;;;;;;;26.10;98.50;;;;;;5075424;28;19954;-76
2022/06/29 11:52:48;;;;;;;;;;;27.20;97.10;;;;;;5074946;28;20381;-76
2022/06/29 11:55:14;;;;;;;;;;;27.30;95.50;;;;;;5075136;28;19908;-76
2022/06/29 11:57:40;;;;;;;;;;;27.60;94.70;;;;;;5075043;28;19966;-76
2022/06/29 12:00:06;;;;;;;;;;;28.90;92.80;;;;;;5075298;28;19957;-76
2022/06/29 12:02:34;;;;;;;;;;;28.20;90.70;;;;;;5074933;28;20003;-76
2022/06/29 12:05:00;;;;;;;;;;;27.30;93.00;;;;;;5075185;28;19941;-76
2022/06/29 12:07:27;;;;;;;;;;;26.40;94.00;;;;;;5075035;28;20358;-76
2022/06/29 12:09:53;;;;;;;;;;;26.00;95.20;;;;;;5075012;28;19913;-76
2022/06/29 12:12:18;;;;;;;;;;;25.50;94.70;;;;;;5072182;28;20384;-77
2022/06/29 12:14:44;;;;;;;;;;;25.40;95.60;;;;;;5074676;28;19909;-76
2022/06/29 12:17:11;;;;;;;;;;;25.50;95.50;;;;;;5075038;28;19909;-76
2022/06/29 12:19:38;;;;;;;;;;;25.40;97.80;;;;;;5074087;28;19915;-76
2022/06/29 12:22:04;;;;;;;;;;;24.90;94.90;;;;;;5073017;28;19915;-76
2022/06/29 12:24:29;;;;;;;;;;;24.80;96.70;;;;;;5074021;28;19917;-76
2022/06/29 12:26:55;;;;;;;;;;;24.60;97.40;;;;;;5072818;28;20250;-76
2022/06/29 12:29:21;;;;;;;;;;;24.50;96.40;;;;;;5073335;28;19913;-77
2022/06/29 12:31:46;;;;;;;;;;;24.90;95.10;;;;;;5074254;28;19914;-76
2022/06/29 12:34:14;;;;;;;;;;;28.20;93.70;;;;;;5074324;28;20003;-76
2022/06/29 12:36:40;;;;;;;;;;;31.40;90.50;;;;;;5073287;28;19909;-76
2022/06/29 12:39:06;;;;;;;;;;;29.20;90.40;;;;;;5074776;28;19999;-76
2022/06/29 12:41:32;;;;;;;;;;;27.30;92.40;;;;;;5072301;28;19916;-76
2022/06/29 12:43:59;;;;;;;;;;;27.10;93.50;;;;;;5079573;28;19962;-76
2022/06/29 12:46:27;;;;;;;;;;;27.60;92.30;;;;;;5072448;28;19958;-76
2022/06/29 12:48:53;;;;;;;;;;;29.70;88.00;;;;;;5074310;28;19920;-76
2022/06/29 12:51:18;;;;;;;;;;;32.10;81.20;;;;;;5073879;28;19909;-75
2022/06/29 12:53:44;;;;;;;;;;;29.50;88.00;;;;;;5071206;28;19909;-75
2022/06/29 12:56:10;;;;;;;;;;;29.10;90.30;;;;;;5064512;28;19918;-75
2022/06/29 12:58:35;;;;;;;;;;;29.90;86.30;;;;;;5068758;28;19938;-75
2022/06/29 13:01:01;;;;;;;;;;;32.10;82.90;;;;;;5066501;28;19916;-75
2022/06/29 13:03:26;;;;;;;;;;;28.80;89.90;;;;;;5078159;28;20284;-76
2022/06/29 13:05:52;;;;;;;;;;;27.00;92.20;;;;;;5073133;28;20392;-76
2022/06/29 13:08:17;;;;;;;;;;;26.20;92.80;;;;;;5071930;28;20556;-75
2022/06/29 13:10:43;;;;;;;;;;;26.00;94.10;;;;;;5072528;28;19908;-76
2022/06/29 13:13:09;;;;;;;;;;;25.60;95.40;;;;;;5071801;28;19914;-76
2022/06/29 13:15:34;;;;;;;;;;;25.80;94.30;;;;;;5071421;28;19908;-75
2022/06/29 13:18:02;;;;;;;;;;;25.80;93.40;;;;;;5073032;28;20003;-76
2022/06/29 13:20:28;;;;;;;;;;;25.70;97.40;;;;;;5072358;28;19951;-75
2022/06/29 13:22:53;;;;;;;;;;;25.80;96.00;;;;;;5072401;28;19955;-76
2022/06/29 13:25:19;;;;;;;;;;;26.00;95.80;;;;;;5072273;28;19951;-76
2022/06/29 13:27:44;;;;;;;;;;;26.80;95.10;;;;;;5071228;28;19915;-76
2022/06/29 13:30:10;;;;;;;;;;;31.00;85.50;;;;;;5072400;28;19912;-76
2022/06/29 13:32:35;;;;;;;;;;;31.80;82.70;;;;;;5072327;28;20258;-76
2022/06/29 13:35:01;;;;;;;;;;;32.80;82.20;;;;;;5072168;28;20369;-76
2022/06/29 13:37:26;;;;;;;;;;;34.20;71.90;;;;;;5072596;28;19916;-76
2022/06/29 13:39:52;;;;;;;;;;;30.30;79.80;;;;;;5071984;28;19908;-76
2022/06/29 13:42:17;;;;;;;;;;;27.80;88.00;;;;;;5063008;28;20388;-75
2022/06/29 13:44:43;;;;;;;;;;;27.40;90.80;;;;;;5067045;28;19909;-76
2022/06/29 13:47:08;;;;;;;;;;;27.10;93.00;;;;;;5072549;28;19915;-76
2022/06/29 13:49:35;;;;;;;;;;;26.50;91.60;;;;;;5073833;28;19913;-77
2022/06/29 13:52:01;;;;;;;;;;;27.00;93.20;;;;;;5071873;28;19915;-76
2022/06/29 13:54:27;;;;;;;;;;;27.90;90.40;;;;;;5069388;28;20006;-76
2022/06/29 13:56:53;;;;;;;;;;;27.10;89.90;;;;;;5071632;28;19913;-76
2022/06/29 13:59:18;;;;;;;;;;;26.90;91.90;;;;;;5070926;28;20050;-76
2022/06/29 14:01:44;;;;;;;;;;;27.60;91.20;;;;;;5066317;28;19947;-75
2022/06/29 14:04:09;;;;;;;;;;;26.60;92.80;;;;;;5071864;28;19916;-76
2022/06/29 14:06:35;;;;;;;;;;;26.30;93.10;;;;;;5071944;28;19916;-76
2022/06/29 14:09:01;;;;;;;;;;;26.10;92.40;;;;;;5070367;28;20313;-75
2022/06/29 14:11:26;;;;;;;;;;;26.30;92.00;;;;;;5070093;28;19923;-76
2022/06/29 14:13:52;;;;;;;;;;;26.20;93.80;;;;;;5066306;28;19908;-76
2022/06/29 14:16:18;;;;;;;;;;;27.20;91.90;;;;;;5078284;28;19915;-76
2022/06/29 14:18:43;;;;;;;;;;;27.30;92.90;;;;;;5072653;28;20381;-76
2022/06/29 14:21:09;;;;;;;;;;;27.10;93.30;;;;;;5069974;28;20362;-76
2022/06/29 14:23:35;;;;;;;;;;;28.30;93.00;;;;;;5070880;28;19995;-76
2022/06/29 14:26:00;;;;;;;;;;;28.50;91.80;;;;;;5072043;28;19932;-76
2022/06/29 14:28:26;;;;;;;;;;;32.10;80.80;;;;;;5071102;28;19913;-76
2022/06/29 14:30:51;;;;;;;;;;;30.50;82.60;;;;;;5071704;28;19967;-76
2022/06/29 14:33:17;;;;;;;;;;;27.80;91.60;;;;;;5070911;28;19908;-75
2022/06/29 14:35:42;;;;;;;;;;;26.30;91.30;;;;;;5071863;28;19908;-76
2022/06/29 14:38:08;;;;;;;;;;;25.50;93.00;;;;;;5071171;28;20277;-75
2022/06/29 14:40:34;;;;;;;;;;;25.20;96.60;;;;;;5071147;28;20018;-77